KHYR/HYR METAR and TAF weather

Enter ICAO airport designator
Station Type Date Time Source
KHYR METAR 2021/09/24 05:53 UTC NOAA

KHYR 240553Z AUTO 00000KT 10SM CLR 06/04 A2992 RMK AO2 SLP136 T00560039 10156 20056 402220022 58006


Station Type Date Time Source
KHYR Decoded METAR 2021/09/24 05:53 UTC NOAA

HAYWARD MUNICIPAL AIRPORT, WI, United States (KHYR) 46-01N 91-27W 370M
Sep 24, 2021 - 01:53 AM EDT / 2021.09.24 0553 UTC
Wind: Calm:0
Visibility: 10 mile(s):0
Sky conditions: clear
Temperature: 42.1 F (5.6 C)
Dew Point: 39.0 F (3.9 C)
Relative Humidity: 88%
Pressure (altimeter): 29.92 in. Hg (1013 hPa)
Pressure tendency: 0.02 inches (0.6 hPa) lower than three hours ago
ob: KHYR 240553Z AUTO 00000KT 10SM CLR 06/04 A2992 RMK AO2 SLP136 T00560039 10156 20056 402220022 58006
cycle: 6

Station Type Date Time Source
KHYR TAF 2021/09/24 06:36 UTC NOAA

TAF KHYR 240535Z 2406/2506 00000KT P6SM SCT250
FM241500 24005KT P6SM VCSH BKN180
FM241800 31006KT 6SM -SHRA BR OVC040
FM242100 31007G14KT P6SM VCSH BKN035
FM250000 30005KT P6SM SCT120

Example: see airport list